Relevés horaires St-Hubert (Belgique)


Relevés horaires à St-Hubert - Mercredi 25 Juill. 2018
Heure UTC1 Température [°C] Vent [km/h] Hum. [%] Pres.4 [hPa] Visi. [Km] Nébu. [octa] Préc.5 [mm] Cond.
2m. Res. Ros. Dir.2 Vit. Moy. Raf.3
23:00 19.5 19.5 14.7 ENE 5.6 5.6 7.4 74 1015.5(-0.3/3h) 30 0/8 -- --
22:00 21.0 21.0 14.9 ENE 5.6 5.6 7.4 68 1015.4(0.2/3h) 35 0/8 -- --
21:00 22.3 22.3 14.0 NE 3.7 3.7 7.4 59 1015.3(0.8/3h) 35 0/8 -- --
20:00 23.1 23.1 13.9 NE 1.9 3.7 5.6 56 1015.1(0.9/3h) 35 0/8 -- --
19:00 26.2 26.2 13.3 N 1.9 1.9 3.7 45 1014.1(0.2/3h) 35 0/8 -- --
18:00 26.4 26.4 13.6 NNO 1.9 7.4 11.1 45 1013.6(-0.4/3h) 30 0/8 0/12h
Ciel clair
17:00 27.6 27.6 12.8 NNO 3.7 5.6 9.3 40 1013.2(-0.8/3h) 29 0/8 -- --
16:00 28.4 28.4 12.2 NNO 5.6 7.4 9.3 37 1013.4(-0.5/3h) 24 0/8 -- --
15:00 27.2 27.2 13.2 ONO 1.9 5.6 11.1 42 1013.9(-0.4/3h) 30 0/8 -- Ciel clair
14:00 24.9 24.9 15.1 SSO 3.7 5.6 7.4 55 1014.5(-0.5/3h) 35 0/8 -- Ciel clair
13:00 27.4 27.4 11.8 NNO 1.9 5.6 11.1 38 1014.2(-0.4/3h) 25 0/8 -- --
12:00 28.6 28.6 9.9 E 3.7 5.6 11.1 31 1014.1(-0.3/3h) 35 0/8 0/6h
--
11:00 26.6 26.6 13.1 NNO 3.7 3.7 7.4 43 1014.7(0.1/3h) 22 0/8 -- --
10:00 24.0 24.0 16.1 NE 1.9 0.0 0.0 61 1015.3(0.5/3h) 30 0/8 -- --
09:00 25.3 25.3 16.5 NNO 0.0 0.0 0.0 58 1014.9(0.8/3h) 26 0/8 -- --
08:00 24.0 24.0 16.1 NNO 0.0 0.0 0.0 61 1015.1(1.1/3h) 25 0/8 -- --
07:00 22.5 22.5 13.0 NNO 0.0 0.0 0.0 55 1015.1(1.0/3h) 29 0/8 -- --
06:00 21.1 21.1 12.9 NNO 0.0 0.0 0.0 59 1015.1(0.7/3h) 30 0/8 0/12h
--
05:00 17.1 17.1 12.7 NNO 0.0 0.0 0.0 75 1015.6(0.6/3h) 28 0/8 -- --
04:00 20.5 20.5 12.4 NNO 0.0 0.0 0.0 60 1014.5(0.1/3h) 35 0/8 -- --
03:00 18.9 18.9 13.5 NNO 0.0 0.0 0.0 71 1014.7(0.0/3h) 28 0/8 -- --
02:00 19.4 19.4 13.3 NNO 0.0 0.0 0.0 68 1014.4(-0.3/3h) 30 0/8 -- --
01:00 19.4 19.4 13.5 NNO 0.0 0.0 0.0 69 1014.5(0.1/3h) 30 0/8 -- --
00:00 20.4 20.4 13.0 NNO 0.0 0.0 0.0 62 1014.4(0.0/3h) 35 0/8 0/6h
0/24h
--

1 Coordinated Universal Time. Actuellement il est 17:00 locale et 15:00 UTC.

2 Le vent souffle depuis la direction indiquée vers la direction oposée.

3 Les rafales max. sont disponible 40 min après l'heure du relevé.

4 Pour les stations d'altitude (plus de 600m) le géopotentiel du niveau le plus proche de la pression obligatoire est indiqué.

5 Les stations disposant d'un diffuseur peuvent indiquer "trace". Cela signifie que des précipitations ont touchés le sol mais que la quantité est inférieure à 0.1 mm.

Récapitulatif de la journée
Température [°C] Vent [km/h] Ensoleillement4 [h] Precipitations totale5 [mm] Pression [Hpa]
Min1 Max.2 Moy.3 Max. Min Max.
16.8 29.3 2.8 11.1 0 h 0 min 0 1013.2 1015.6

1 Température minimale relevée entre 18:00 UTC la veille et 18:00 UTC le jour donné.

2 Température maximale relevée entre 06:00 UTC le jour donné et 06:00 UTC le lendemain.

3 Vent moyen de la journée basé sur les relevés horaires.

4 Ensoleillement en heures relevé entre 06:00 UTC la veille et 06:00 UTC le jour donné.

5 Précipitations totales tombées entre 06:00 UTC la jour donné et 06:00 UTC le lendemain.

Graphiques horaires